sensor_id;sensor_type;location;lat;lon;timestamp;P1;durP1;ratioP1;P2;durP2;ratioP2
17345;SDS011;8790;53.590;10.002;2023-07-29T00:00:17;4.63;;;3.77;;
17345;SDS011;8790;53.590;10.002;2023-07-29T00:02:49;4.40;;;4.00;;
17345;SDS011;8790;53.590;10.002;2023-07-29T00:05:21;4.30;;;3.90;;
17345;SDS011;8790;53.590;10.002;2023-07-29T00:07:54;5.37;;;4.13;;
17345;SDS011;8790;53.590;10.002;2023-07-29T00:10:26;5.30;;;4.23;;
17345;SDS011;8790;53.590;10.002;2023-07-29T00:12:58;4.43;;;4.00;;
17345;SDS011;8790;53.590;10.002;2023-07-29T00:15:30;4.88;;;4.03;;
17345;SDS011;8790;53.590;10.002;2023-07-29T00:18:01;5.77;;;3.97;;
17345;SDS011;8790;53.590;10.002;2023-07-29T00:20:33;4.63;;;3.77;;
17345;SDS011;8790;53.590;10.002;2023-07-29T00:23:06;4.43;;;4.03;;
17345;SDS011;8790;53.590;10.002;2023-07-29T00:25:38;5.40;;;4.03;;
17345;SDS011;8790;53.590;10.002;2023-07-29T00:28:11;4.87;;;4.37;;
17345;SDS011;8790;53.590;10.002;2023-07-29T00:30:43;4.97;;;4.33;;
17345;SDS011;8790;53.590;10.002;2023-07-29T00:33:15;4.70;;;4.30;;
17345;SDS011;8790;53.590;10.002;2023-07-29T00:35:47;5.68;;;4.50;;
17345;SDS011;8790;53.590;10.002;2023-07-29T00:38:20;4.50;;;4.10;;
17345;SDS011;8790;53.590;10.002;2023-07-29T00:40:52;5.50;;;4.63;;
17345;SDS011;8790;53.590;10.002;2023-07-29T00:43:23;6.33;;;4.83;;
17345;SDS011;8790;53.590;10.002;2023-07-29T00:45:55;6.33;;;4.60;;
17345;SDS011;8790;53.590;10.002;2023-07-29T00:48:27;5.23;;;4.73;;
17345;SDS011;8790;53.590;10.002;2023-07-29T00:50:59;5.70;;;5.00;;
17345;SDS011;8790;53.590;10.002;2023-07-29T00:53:33;5.83;;;5.00;;
17345;SDS011;8790;53.590;10.002;2023-07-29T00:56:05;6.33;;;5.27;;
17345;SDS011;8790;53.590;10.002;2023-07-29T00:58:37;5.00;;;4.50;;
17345;SDS011;8790;53.590;10.002;2023-07-29T01:01:08;6.43;;;5.37;;
17345;SDS011;8790;53.590;10.002;2023-07-29T01:03:40;6.13;;;5.27;;
17345;SDS011;8790;53.590;10.002;2023-07-29T01:06:17;6.13;;;5.30;;
17345;SDS011;8790;53.590;10.002;2023-07-29T01:08:58;6.60;;;5.60;;
17345;SDS011;8790;53.590;10.002;2023-07-29T01:11:35;7.83;;;5.60;;
17345;SDS011;8790;53.590;10.002;2023-07-29T01:14:29;5.77;;;5.10;;
17345;SDS011;8790;53.590;10.002;2023-07-29T01:17:09;7.17;;;5.20;;
17345;SDS011;8790;53.590;10.002;2023-07-29T01:19:48;6.50;;;5.20;;
17345;SDS011;8790;53.590;10.002;2023-07-29T01:22:31;7.97;;;5.40;;
17345;SDS011;8790;53.590;10.002;2023-07-29T01:25:06;5.63;;;5.07;;
17345;SDS011;8790;53.590;10.002;2023-07-29T01:27:38;6.77;;;5.43;;
17345;SDS011;8790;53.590;10.002;2023-07-29T01:30:09;6.13;;;5.17;;
17345;SDS011;8790;53.590;10.002;2023-07-29T01:32:43;9.00;;;5.37;;
17345;SDS011;8790;53.590;10.002;2023-07-29T01:35:21;6.65;;;5.15;;
17345;SDS011;8790;53.590;10.002;2023-07-29T01:37:56;5.93;;;4.90;;
17345;SDS011;8790;53.590;10.002;2023-07-29T01:40:33;5.63;;;5.03;;
17345;SDS011;8790;53.590;10.002;2023-07-29T01:43:05;6.17;;;4.47;;
17345;SDS011;8790;53.590;10.002;2023-07-29T01:45:37;5.53;;;4.60;;
17345;SDS011;8790;53.590;10.002;2023-07-29T01:48:10;5.30;;;4.77;;
17345;SDS011;8790;53.590;10.002;2023-07-29T01:50:42;5.43;;;4.93;;
17345;SDS011;8790;53.590;10.002;2023-07-29T01:53:13;5.63;;;4.60;;
17345;SDS011;8790;53.590;10.002;2023-07-29T01:55:46;5.63;;;4.93;;
17345;SDS011;8790;53.590;10.002;2023-07-29T01:58:18;7.15;;;5.38;;
17345;SDS011;8790;53.590;10.002;2023-07-29T02:00:51;10.45;;;6.22;;
17345;SDS011;8790;53.590;10.002;2023-07-29T02:03:23;8.93;;;6.30;;
17345;SDS011;8790;53.590;10.002;2023-07-29T02:05:55;11.00;;;7.00;;
17345;SDS011;8790;53.590;10.002;2023-07-29T02:08:27;8.90;;;6.83;;
17345;SDS011;8790;53.590;10.002;2023-07-29T02:11:00;8.73;;;7.13;;
17345;SDS011;8790;53.590;10.002;2023-07-29T02:13:32;9.50;;;7.57;;
17345;SDS011;8790;53.590;10.002;2023-07-29T02:16:04;10.90;;;8.27;;
17345;SDS011;8790;53.590;10.002;2023-07-29T02:18:36;9.10;;;8.18;;
17345;SDS011;8790;53.590;10.002;2023-07-29T02:21:07;11.13;;;8.80;;
17345;SDS011;8790;53.590;10.002;2023-07-29T02:23:39;9.90;;;8.77;;
17345;SDS011;8790;53.590;10.002;2023-07-29T02:26:12;9.80;;;8.77;;
17345;SDS011;8790;53.590;10.002;2023-07-29T02:28:44;10.13;;;8.60;;
17345;SDS011;8790;53.590;10.002;2023-07-29T02:31:16;10.52;;;9.30;;
17345;SDS011;8790;53.590;10.002;2023-07-29T02:33:49;10.37;;;9.27;;
17345;SDS011;8790;53.590;10.002;2023-07-29T02:36:22;11.20;;;9.30;;
17345;SDS011;8790;53.590;10.002;2023-07-29T02:38:54;11.48;;;10.20;;
17345;SDS011;8790;53.590;10.002;2023-07-29T02:41:27;11.13;;;9.97;;
17345;SDS011;8790;53.590;10.002;2023-07-29T02:43:59;11.83;;;9.97;;
17345;SDS011;8790;53.590;10.002;2023-07-29T02:46:32;12.10;;;10.80;;
17345;SDS011;8790;53.590;10.002;2023-07-29T02:49:04;13.13;;;11.40;;
17345;SDS011;8790;53.590;10.002;2023-07-29T02:51:36;14.57;;;12.50;;
17345;SDS011;8790;53.590;10.002;2023-07-29T02:54:08;12.63;;;11.32;;
17345;SDS011;8790;53.590;10.002;2023-07-29T02:56:41;13.82;;;11.80;;
17345;SDS011;8790;53.590;10.002;2023-07-29T02:59:13;13.77;;;11.40;;
17345;SDS011;8790;53.590;10.002;2023-07-29T03:01:45;13.77;;;11.40;;
17345;SDS011;8790;53.590;10.002;2023-07-29T03:04:17;14.17;;;11.83;;
17345;SDS011;8790;53.590;10.002;2023-07-29T03:06:48;12.77;;;10.67;;
17345;SDS011;8790;53.590;10.002;2023-07-29T03:09:20;12.75;;;11.45;;
17345;SDS011;8790;53.590;10.002;2023-07-29T03:11:53;12.40;;;10.93;;
17345;SDS011;8790;53.590;10.002;2023-07-29T03:14:25;12.43;;;10.57;;
17345;SDS011;8790;53.590;10.002;2023-07-29T03:16:57;13.80;;;11.37;;
17345;SDS011;8790;53.590;10.002;2023-07-29T03:19:33;12.20;;;10.70;;
17345;SDS011;8790;53.590;10.002;2023-07-29T03:22:05;12.97;;;11.47;;
17345;SDS011;8790;53.590;10.002;2023-07-29T03:24:37;12.20;;;10.90;;
17345;SDS011;8790;53.590;10.002;2023-07-29T03:27:10;13.07;;;11.32;;
17345;SDS011;8790;53.590;10.002;2023-07-29T03:29:42;12.68;;;11.23;;
17345;SDS011;8790;53.590;10.002;2023-07-29T03:32:13;12.98;;;11.07;;
17345;SDS011;8790;53.590;10.002;2023-07-29T03:34:45;12.27;;;10.95;;
17345;SDS011;8790;53.590;10.002;2023-07-29T03:37:17;11.77;;;10.57;;
17345;SDS011;8790;53.590;10.002;2023-07-29T03:39:49;13.50;;;12.05;;
17345;SDS011;8790;53.590;10.002;2023-07-29T03:42:23;11.97;;;10.70;;
17345;SDS011;8790;53.590;10.002;2023-07-29T03:44:55;12.47;;;11.13;;
17345;SDS011;8790;53.590;10.002;2023-07-29T03:47:27;12.23;;;10.93;;
17345;SDS011;8790;53.590;10.002;2023-07-29T03:50:00;13.60;;;11.47;;
17345;SDS011;8790;53.590;10.002;2023-07-29T03:52:33;12.90;;;11.07;;
17345;SDS011;8790;53.590;10.002;2023-07-29T03:55:05;13.30;;;11.20;;
17345;SDS011;8790;53.590;10.002;2023-07-29T03:57:39;13.02;;;11.40;;
17345;SDS011;8790;53.590;10.002;2023-07-29T04:00:11;13.07;;;10.97;;
17345;SDS011;8790;53.590;10.002;2023-07-29T04:02:46;12.97;;;11.30;;
17345;SDS011;8790;53.590;10.002;2023-07-29T04:05:18;13.17;;;11.77;;
17345;SDS011;8790;53.590;10.002;2023-07-29T04:07:50;13.13;;;11.80;;
17345;SDS011;8790;53.590;10.002;2023-07-29T04:10:23;12.43;;;11.17;;
17345;SDS011;8790;53.590;10.002;2023-07-29T04:12:57;12.90;;;11.60;;
17345;SDS011;8790;53.590;10.002;2023-07-29T04:15:28;12.50;;;11.20;;
17345;SDS011;8790;53.590;10.002;2023-07-29T04:18:00;13.43;;;12.00;;
17345;SDS011;8790;53.590;10.002;2023-07-29T04:20:32;12.53;;;11.23;;
17345;SDS011;8790;53.590;10.002;2023-07-29T04:23:04;12.50;;;11.07;;
17345;SDS011;8790;53.590;10.002;2023-07-29T04:25:36;13.33;;;11.93;;
17345;SDS011;8790;53.590;10.002;2023-07-29T04:28:09;18.30;;;15.37;;
17345;SDS011;8790;53.590;10.002;2023-07-29T04:30:41;20.50;;;16.77;;
17345;SDS011;8790;53.590;10.002;2023-07-29T04:33:13;22.67;;;17.93;;
17345;SDS011;8790;53.590;10.002;2023-07-29T04:35:45;23.50;;;18.63;;
17345;SDS011;8790;53.590;10.002;2023-07-29T04:38:18;24.20;;;19.07;;
17345;SDS011;8790;53.590;10.002;2023-07-29T04:40:50;27.20;;;20.70;;
17345;SDS011;8790;53.590;10.002;2023-07-29T04:43:23;31.70;;;21.60;;
17345;SDS011;8790;53.590;10.002;2023-07-29T04:45:58;30.40;;;21.67;;
17345;SDS011;8790;53.590;10.002;2023-07-29T04:48:31;31.50;;;21.90;;
17345;SDS011;8790;53.590;10.002;2023-07-29T04:51:03;29.88;;;21.42;;
17345;SDS011;8790;53.590;10.002;2023-07-29T04:53:34;29.83;;;21.05;;
17345;SDS011;8790;53.590;10.002;2023-07-29T04:56:07;26.90;;;20.40;;
17345;SDS011;8790;53.590;10.002;2023-07-29T04:58:40;28.37;;;21.00;;
17345;SDS011;8790;53.590;10.002;2023-07-29T05:01:12;28.43;;;21.03;;
17345;SDS011;8790;53.590;10.002;2023-07-29T05:03:44;26.98;;;19.95;;
17345;SDS011;8790;53.590;10.002;2023-07-29T05:06:16;26.20;;;20.00;;
17345;SDS011;8790;53.590;10.002;2023-07-29T05:08:48;26.45;;;19.70;;
17345;SDS011;8790;53.590;10.002;2023-07-29T05:11:20;27.43;;;20.77;;
17345;SDS011;8790;53.590;10.002;2023-07-29T05:13:53;28.43;;;20.77;;
17345;SDS011;8790;53.590;10.002;2023-07-29T05:16:25;27.23;;;20.53;;
17345;SDS011;8790;53.590;10.002;2023-07-29T05:18:57;24.77;;;19.93;;
17345;SDS011;8790;53.590;10.002;2023-07-29T05:21:29;27.10;;;20.37;;
17345;SDS011;8790;53.590;10.002;2023-07-29T05:24:00;24.80;;;18.42;;
17345;SDS011;8790;53.590;10.002;2023-07-29T05:26:32;23.87;;;18.27;;
17345;SDS011;8790;53.590;10.002;2023-07-29T05:29:05;28.42;;;19.80;;
17345;SDS011;8790;53.590;10.002;2023-07-29T05:31:37;26.20;;;19.65;;
17345;SDS011;8790;53.590;10.002;2023-07-29T05:34:09;24.67;;;19.43;;
17345;SDS011;8790;53.590;10.002;2023-07-29T05:36:41;26.23;;;20.27;;
17345;SDS011;8790;53.590;10.002;2023-07-29T05:39:13;26.23;;;20.02;;
17345;SDS011;8790;53.590;10.002;2023-07-29T05:41:45;25.70;;;20.13;;
17345;SDS011;8790;53.590;10.002;2023-07-29T05:44:18;24.25;;;18.55;;
17345;SDS011;8790;53.590;10.002;2023-07-29T05:46:50;23.67;;;18.70;;
17345;SDS011;8790;53.590;10.002;2023-07-29T05:49:22;24.45;;;18.83;;
17345;SDS011;8790;53.590;10.002;2023-07-29T05:51:54;23.93;;;18.80;;
17345;SDS011;8790;53.590;10.002;2023-07-29T05:54:26;23.20;;;18.50;;
17345;SDS011;8790;53.590;10.002;2023-07-29T05:56:57;26.45;;;18.27;;
17345;SDS011;8790;53.590;10.002;2023-07-29T05:59:30;23.67;;;18.80;;
17345;SDS011;8790;53.590;10.002;2023-07-29T06:02:02;23.98;;;18.65;;
17345;SDS011;8790;53.590;10.002;2023-07-29T06:04:34;25.20;;;19.60;;
17345;SDS011;8790;53.590;10.002;2023-07-29T06:07:06;24.13;;;18.63;;
17345;SDS011;8790;53.590;10.002;2023-07-29T06:09:39;23.10;;;19.13;;
17345;SDS011;8790;53.590;10.002;2023-07-29T06:12:11;23.48;;;19.17;;
17345;SDS011;8790;53.590;10.002;2023-07-29T06:14:44;22.92;;;18.52;;
17345;SDS011;8790;53.590;10.002;2023-07-29T06:17:16;26.05;;;19.83;;
17345;SDS011;8790;53.590;10.002;2023-07-29T06:19:47;24.65;;;20.20;;
17345;SDS011;8790;53.590;10.002;2023-07-29T06:22:19;26.10;;;19.27;;
17345;SDS011;8790;53.590;10.002;2023-07-29T06:24:51;25.83;;;19.90;;
17345;SDS011;8790;53.590;10.002;2023-07-29T06:27:23;24.30;;;19.45;;
17345;SDS011;8790;53.590;10.002;2023-07-29T06:29:57;25.45;;;19.13;;
17345;SDS011;8790;53.590;10.002;2023-07-29T06:32:28;25.45;;;20.85;;
17345;SDS011;8790;53.590;10.002;2023-07-29T06:35:00;25.08;;;19.77;;
17345;SDS011;8790;53.590;10.002;2023-07-29T06:37:32;26.42;;;20.60;;
17345;SDS011;8790;53.590;10.002;2023-07-29T06:40:04;25.90;;;20.42;;
17345;SDS011;8790;53.590;10.002;2023-07-29T06:42:37;24.73;;;20.23;;
17345;SDS011;8790;53.590;10.002;2023-07-29T06:45:10;25.75;;;20.55;;
17345;SDS011;8790;53.590;10.002;2023-07-29T06:47:41;26.23;;;21.98;;
17345;SDS011;8790;53.590;10.002;2023-07-29T06:50:13;26.63;;;21.75;;
17345;SDS011;8790;53.590;10.002;2023-07-29T06:52:45;26.08;;;21.42;;
17345;SDS011;8790;53.590;10.002;2023-07-29T06:55:16;25.43;;;21.93;;
17345;SDS011;8790;53.590;10.002;2023-07-29T06:57:48;28.10;;;21.13;;
17345;SDS011;8790;53.590;10.002;2023-07-29T07:00:21;27.55;;;22.15;;
17345;SDS011;8790;53.590;10.002;2023-07-29T07:02:53;27.67;;;21.40;;
17345;SDS011;8790;53.590;10.002;2023-07-29T07:05:26;27.15;;;21.60;;
17345;SDS011;8790;53.590;10.002;2023-07-29T07:07:57;27.90;;;21.77;;
17345;SDS011;8790;53.590;10.002;2023-07-29T07:10:29;25.08;;;20.30;;
17345;SDS011;8790;53.590;10.002;2023-07-29T07:13:02;25.17;;;20.40;;
17345;SDS011;8790;53.590;10.002;2023-07-29T07:15:35;24.10;;;19.83;;
17345;SDS011;8790;53.590;10.002;2023-07-29T07:18:06;24.70;;;19.77;;
17345;SDS011;8790;53.590;10.002;2023-07-29T07:20:39;26.50;;;19.92;;
17345;SDS011;8790;53.590;10.002;2023-07-29T07:23:11;26.17;;;19.80;;
17345;SDS011;8790;53.590;10.002;2023-07-29T07:25:43;23.20;;;18.20;;
17345;SDS011;8790;53.590;10.002;2023-07-29T07:28:15;25.52;;;18.85;;
17345;SDS011;8790;53.590;10.002;2023-07-29T07:30:48;24.95;;;19.38;;
17345;SDS011;8790;53.590;10.002;2023-07-29T07:33:20;26.25;;;18.83;;
17345;SDS011;8790;53.590;10.002;2023-07-29T07:35:51;25.00;;;19.20;;
17345;SDS011;8790;53.590;10.002;2023-07-29T07:38:23;26.35;;;18.90;;
17345;SDS011;8790;53.590;10.002;2023-07-29T07:40:55;24.38;;;19.83;;
17345;SDS011;8790;53.590;10.002;2023-07-29T08:32:22;11.30;;;10.05;;
17345;SDS011;8790;53.590;10.002;2023-07-29T08:35:46;9.90;;;8.90;;
17345;SDS011;8790;53.590;10.002;2023-07-29T08:45:43;12.95;;;11.55;;
17345;SDS011;8790;53.590;10.002;2023-07-29T08:48:15;13.63;;;12.13;;
17345;SDS011;8790;53.590;10.002;2023-07-29T08:50:50;15.45;;;12.23;;
17345;SDS011;8790;53.590;10.002;2023-07-29T08:53:23;14.85;;;12.68;;
17345;SDS011;8790;53.590;10.002;2023-07-29T08:55:55;15.10;;;13.50;;
17345;SDS011;8790;53.590;10.002;2023-07-29T08:58:26;16.05;;;13.27;;
17345;SDS011;8790;53.590;10.002;2023-07-29T09:01:00;16.08;;;13.70;;
17345;SDS011;8790;53.590;10.002;2023-07-29T09:03:32;19.27;;;14.57;;
17345;SDS011;8790;53.590;10.002;2023-07-29T09:06:03;17.65;;;14.65;;
17345;SDS011;8790;53.590;10.002;2023-07-29T09:08:35;16.92;;;14.38;;
17345;SDS011;8790;53.590;10.002;2023-07-29T09:11:07;17.88;;;14.73;;
17345;SDS011;8790;53.590;10.002;2023-07-29T09:13:39;17.48;;;14.65;;
17345;SDS011;8790;53.590;10.002;2023-07-29T09:16:12;16.00;;;13.75;;
17345;SDS011;8790;53.590;10.002;2023-07-29T09:18:43;19.05;;;15.25;;
17345;SDS011;8790;53.590;10.002;2023-07-29T09:21:15;16.85;;;14.55;;
17345;SDS011;8790;53.590;10.002;2023-07-29T09:23:47;18.83;;;14.95;;
17345;SDS011;8790;53.590;10.002;2023-07-29T09:26:21;18.23;;;14.73;;
17345;SDS011;8790;53.590;10.002;2023-07-29T09:28:53;16.23;;;13.82;;
17345;SDS011;8790;53.590;10.002;2023-07-29T09:31:27;18.02;;;14.50;;
17345;SDS011;8790;53.590;10.002;2023-07-29T09:34:00;18.60;;;14.75;;
17345;SDS011;8790;53.590;10.002;2023-07-29T09:36:32;16.83;;;13.32;;
17345;SDS011;8790;53.590;10.002;2023-07-29T09:39:10;17.27;;;13.82;;
17345;SDS011;8790;53.590;10.002;2023-07-29T09:41:45;15.95;;;13.63;;
17345;SDS011;8790;53.590;10.002;2023-07-29T09:44:18;14.60;;;13.07;;
17345;SDS011;8790;53.590;10.002;2023-07-29T09:46:51;15.00;;;12.45;;
17345;SDS011;8790;53.590;10.002;2023-07-29T09:49:23;14.60;;;12.18;;
17345;SDS011;8790;53.590;10.002;2023-07-29T09:51:55;13.48;;;11.25;;
17345;SDS011;8790;53.590;10.002;2023-07-29T09:54:27;13.68;;;12.20;;
17345;SDS011;8790;53.590;10.002;2023-07-29T09:56:58;14.27;;;11.70;;
17345;SDS011;8790;53.590;10.002;2023-07-29T09:59:33;11.50;;;10.07;;
17345;SDS011;8790;53.590;10.002;2023-07-29T10:02:06;9.65;;;8.65;;
17345;SDS011;8790;53.590;10.002;2023-07-29T10:04:41;9.02;;;8.07;;
17345;SDS011;8790;53.590;10.002;2023-07-29T10:07:12;8.57;;;7.60;;
17345;SDS011;8790;53.590;10.002;2023-07-29T10:09:45;8.20;;;7.38;;
17345;SDS011;8790;53.590;10.002;2023-07-29T10:12:17;8.30;;;6.95;;
17345;SDS011;8790;53.590;10.002;2023-07-29T10:14:48;7.18;;;6.45;;
17345;SDS011;8790;53.590;10.002;2023-07-29T10:17:21;10.75;;;7.57;;
17345;SDS011;8790;53.590;10.002;2023-07-29T10:19:53;8.43;;;7.25;;
17345;SDS011;8790;53.590;10.002;2023-07-29T10:22:32;7.65;;;6.88;;
17345;SDS011;8790;53.590;10.002;2023-07-29T10:25:05;6.70;;;6.10;;
17345;SDS011;8790;53.590;10.002;2023-07-29T10:27:42;7.78;;;6.82;;
17345;SDS011;8790;53.590;10.002;2023-07-29T10:30:14;7.05;;;6.35;;
17345;SDS011;8790;53.590;10.002;2023-07-29T10:32:47;6.25;;;5.60;;
17345;SDS011;8790;53.590;10.002;2023-07-29T10:35:20;6.03;;;5.43;;
17345;SDS011;8790;53.590;10.002;2023-07-29T10:37:51;5.60;;;5.10;;
17345;SDS011;8790;53.590;10.002;2023-07-29T10:40:23;6.00;;;5.50;;
17345;SDS011;8790;53.590;10.002;2023-07-29T10:42:59;6.05;;;5.45;;
17345;SDS011;8790;53.590;10.002;2023-07-29T10:45:37;6.90;;;6.20;;
17345;SDS011;8790;53.590;10.002;2023-07-29T10:48:11;5.53;;;5.03;;
17345;SDS011;8790;53.590;10.002;2023-07-29T10:50:43;6.75;;;5.50;;
17345;SDS011;8790;53.590;10.002;2023-07-29T10:53:15;7.07;;;5.63;;
17345;SDS011;8790;53.590;10.002;2023-07-29T10:55:48;6.03;;;5.15;;
17345;SDS011;8790;53.590;10.002;2023-07-29T10:58:22;6.18;;;5.57;;
17345;SDS011;8790;53.590;10.002;2023-07-29T11:00:54;6.40;;;5.60;;
17345;SDS011;8790;53.590;10.002;2023-07-29T11:03:26;6.15;;;5.28;;
17345;SDS011;8790;53.590;10.002;2023-07-29T11:05:59;7.07;;;5.97;;
17345;SDS011;8790;53.590;10.002;2023-07-29T11:08:35;7.15;;;5.20;;
17345;SDS011;8790;53.590;10.002;2023-07-29T11:11:07;5.55;;;5.00;;
17345;SDS011;8790;53.590;10.002;2023-07-29T11:13:40;5.55;;;5.05;;
17345;SDS011;8790;53.590;10.002;2023-07-29T11:16:11;5.60;;;5.10;;
17345;SDS011;8790;53.590;10.002;2023-07-29T11:18:48;7.10;;;4.82;;
17345;SDS011;8790;53.590;10.002;2023-07-29T11:21:20;6.18;;;4.80;;
17345;SDS011;8790;53.590;10.002;2023-07-29T11:23:53;6.18;;;4.60;;
17345;SDS011;8790;53.590;10.002;2023-07-29T11:26:24;5.60;;;4.00;;
17345;SDS011;8790;53.590;10.002;2023-07-29T11:28:56;4.55;;;3.47;;
17345;SDS011;8790;53.590;10.002;2023-07-29T11:31:38;3.97;;;3.58;;
17345;SDS011;8790;53.590;10.002;2023-07-29T11:34:11;3.95;;;3.47;;
17345;SDS011;8790;53.590;10.002;2023-07-29T11:36:47;3.78;;;3.28;;
17345;SDS011;8790;53.590;10.002;2023-07-29T11:39:18;3.00;;;2.80;;
17345;SDS011;8790;53.590;10.002;2023-07-29T11:41:50;3.28;;;2.97;;
17345;SDS011;8790;53.590;10.002;2023-07-29T11:44:21;5.85;;;4.28;;
17345;SDS011;8790;53.590;10.002;2023-07-29T11:46:53;3.85;;;2.90;;
17345;SDS011;8790;53.590;10.002;2023-07-29T11:49:26;3.78;;;3.20;;
17345;SDS011;8790;53.590;10.002;2023-07-29T11:51:58;3.30;;;2.97;;
17345;SDS011;8790;53.590;10.002;2023-07-29T11:54:29;4.07;;;3.33;;
17345;SDS011;8790;53.590;10.002;2023-07-29T11:57:01;3.80;;;3.35;;
17345;SDS011;8790;53.590;10.002;2023-07-29T11:59:32;4.18;;;2.90;;
17345;SDS011;8790;53.590;10.002;2023-07-29T12:02:07;3.65;;;3.20;;
17345;SDS011;8790;53.590;10.002;2023-07-29T12:04:42;5.15;;;3.90;;
17345;SDS011;8790;53.590;10.002;2023-07-29T12:07:16;4.05;;;3.40;;
17345;SDS011;8790;53.590;10.002;2023-07-29T12:09:48;3.30;;;3.00;;
17345;SDS011;8790;53.590;10.002;2023-07-29T12:12:21;4.15;;;3.63;;
17345;SDS011;8790;53.590;10.002;2023-07-29T12:14:53;3.58;;;3.28;;
17345;SDS011;8790;53.590;10.002;2023-07-29T12:17:28;3.40;;;3.10;;
17345;SDS011;8790;53.590;10.002;2023-07-29T12:20:02;3.50;;;3.20;;
17345;SDS011;8790;53.590;10.002;2023-07-29T12:22:33;3.30;;;3.00;;
17345;SDS011;8790;53.590;10.002;2023-07-29T12:25:05;5.13;;;2.50;;
17345;SDS011;8790;53.590;10.002;2023-07-29T12:27:37;2.67;;;2.47;;
17345;SDS011;8790;53.590;10.002;2023-07-29T12:30:08;3.13;;;2.65;;
17345;SDS011;8790;53.590;10.002;2023-07-29T12:32:44;2.50;;;2.30;;
17345;SDS011;8790;53.590;10.002;2023-07-29T12:35:17;3.00;;;2.70;;
17345;SDS011;8790;53.590;10.002;2023-07-29T12:37:57;2.75;;;2.55;;
17345;SDS011;8790;53.590;10.002;2023-07-29T12:40:29;2.97;;;2.45;;
17345;SDS011;8790;53.590;10.002;2023-07-29T12:43:01;2.45;;;2.25;;
17345;SDS011;8790;53.590;10.002;2023-07-29T12:45:35;2.25;;;2.00;;
17345;SDS011;8790;53.590;10.002;2023-07-29T12:48:09;2.40;;;2.20;;
17345;SDS011;8790;53.590;10.002;2023-07-29T12:50:42;2.20;;;2.00;;
17345;SDS011;8790;53.590;10.002;2023-07-29T12:53:14;2.30;;;2.10;;
17345;SDS011;8790;53.590;10.002;2023-07-29T12:55:45;3.28;;;2.38;;
17345;SDS011;8790;53.590;10.002;2023-07-29T12:58:17;2.20;;;2.00;;
17345;SDS011;8790;53.590;10.002;2023-07-29T13:00:48;2.28;;;2.08;;
17345;SDS011;8790;53.590;10.002;2023-07-29T13:03:19;3.15;;;2.10;;
17345;SDS011;8790;53.590;10.002;2023-07-29T13:05:53;2.40;;;2.20;;
17345;SDS011;8790;53.590;10.002;2023-07-29T13:08:24;2.30;;;2.10;;
17345;SDS011;8790;53.590;10.002;2023-07-29T13:10:55;2.13;;;1.80;;
17345;SDS011;8790;53.590;10.002;2023-07-29T13:13:27;1.70;;;1.60;;
17345;SDS011;8790;53.590;10.002;2023-07-29T13:15:58;2.50;;;2.30;;
17345;SDS011;8790;53.590;10.002;2023-07-29T13:18:31;2.58;;;1.95;;
17345;SDS011;8790;53.590;10.002;2023-07-29T13:21:04;2.33;;;2.13;;
17345;SDS011;8790;53.590;10.002;2023-07-29T13:23:35;2.42;;;2.10;;
17345;SDS011;8790;53.590;10.002;2023-07-29T13:26:07;2.45;;;2.22;;
17345;SDS011;8790;53.590;10.002;2023-07-29T13:28:38;2.35;;;2.15;;
17345;SDS011;8790;53.590;10.002;2023-07-29T13:31:09;2.20;;;2.10;;
17345;SDS011;8790;53.590;10.002;2023-07-29T13:33:41;2.28;;;2.08;;
17345;SDS011;8790;53.590;10.002;2023-07-29T13:36:14;2.50;;;2.25;;
17345;SDS011;8790;53.590;10.002;2023-07-29T13:38:45;2.35;;;2.17;;
17345;SDS011;8790;53.590;10.002;2023-07-29T13:41:16;2.72;;;2.03;;
17345;SDS011;8790;53.590;10.002;2023-07-29T13:43:48;2.50;;;2.22;;
17345;SDS011;8790;53.590;10.002;2023-07-29T13:46:19;2.47;;;2.28;;
17345;SDS011;8790;53.590;10.002;2023-07-29T13:48:51;2.50;;;2.30;;
17345;SDS011;8790;53.590;10.002;2023-07-29T13:51:24;2.58;;;2.38;;
17345;SDS011;8790;53.590;10.002;2023-07-29T13:53:55;2.90;;;2.13;;
17345;SDS011;8790;53.590;10.002;2023-07-29T13:56:27;2.28;;;2.03;;
17345;SDS011;8790;53.590;10.002;2023-07-29T13:58:58;2.47;;;2.28;;
17345;SDS011;8790;53.590;10.002;2023-07-29T14:01:30;2.72;;;2.38;;
17345;SDS011;8790;53.590;10.002;2023-07-29T14:04:01;2.55;;;2.35;;
17345;SDS011;8790;53.590;10.002;2023-07-29T14:06:34;2.15;;;2.05;;
17345;SDS011;8790;53.590;10.002;2023-07-29T14:09:05;4.63;;;3.75;;
17345;SDS011;8790;53.590;10.002;2023-07-29T14:11:37;2.50;;;2.30;;
17345;SDS011;8790;53.590;10.002;2023-07-29T14:14:09;2.85;;;2.60;;
17345;SDS011;8790;53.590;10.002;2023-07-29T14:16:40;2.53;;;2.33;;
17345;SDS011;8790;53.590;10.002;2023-07-29T14:19:12;3.15;;;2.60;;
17345;SDS011;8790;53.590;10.002;2023-07-29T14:21:45;2.22;;;2.10;;
17345;SDS011;8790;53.590;10.002;2023-07-29T14:24:16;2.15;;;1.95;;
17345;SDS011;8790;53.590;10.002;2023-07-29T14:26:48;2.20;;;1.90;;
17345;SDS011;8790;53.590;10.002;2023-07-29T14:29:20;1.95;;;1.85;;
17345;SDS011;8790;53.590;10.002;2023-07-29T14:31:51;2.17;;;1.98;;
17345;SDS011;8790;53.590;10.002;2023-07-29T14:34:23;2.20;;;2.00;;
17345;SDS011;8790;53.590;10.002;2023-07-29T14:36:55;2.25;;;2.05;;
17345;SDS011;8790;53.590;10.002;2023-07-29T14:39:27;3.50;;;2.05;;
17345;SDS011;8790;53.590;10.002;2023-07-29T14:41:59;2.20;;;1.90;;
17345;SDS011;8790;53.590;10.002;2023-07-29T14:44:30;2.95;;;2.00;;
17345;SDS011;8790;53.590;10.002;2023-07-29T14:47:02;2.45;;;2.25;;
17345;SDS011;8790;53.590;10.002;2023-07-29T14:49:33;2.40;;;2.10;;
17345;SDS011;8790;53.590;10.002;2023-07-29T14:52:07;2.78;;;2.13;;
17345;SDS011;8790;53.590;10.002;2023-07-29T14:54:38;2.40;;;2.00;;
17345;SDS011;8790;53.590;10.002;2023-07-29T14:57:10;3.08;;;2.00;;
17345;SDS011;8790;53.590;10.002;2023-07-29T14:59:41;2.35;;;2.03;;
17345;SDS011;8790;53.590;10.002;2023-07-29T15:02:13;2.15;;;1.95;;
17345;SDS011;8790;53.590;10.002;2023-07-29T15:04:44;3.22;;;1.90;;
17345;SDS011;8790;53.590;10.002;2023-07-29T15:07:17;2.17;;;1.70;;
17345;SDS011;8790;53.590;10.002;2023-07-29T15:09:49;2.00;;;1.80;;
17345;SDS011;8790;53.590;10.002;2023-07-29T15:12:20;2.60;;;2.08;;
17345;SDS011;8790;53.590;10.002;2023-07-29T15:14:51;3.65;;;2.03;;
17345;SDS011;8790;53.590;10.002;2023-07-29T15:17:23;2.75;;;1.92;;
17345;SDS011;8790;53.590;10.002;2023-07-29T15:19:54;2.35;;;2.10;;
17345;SDS011;8790;53.590;10.002;2023-07-29T15:22:28;2.42;;;1.90;;
17345;SDS011;8790;53.590;10.002;2023-07-29T15:24:59;2.03;;;1.85;;
17345;SDS011;8790;53.590;10.002;2023-07-29T15:27:31;4.32;;;2.40;;
17345;SDS011;8790;53.590;10.002;2023-07-29T15:30:03;2.35;;;2.10;;
17345;SDS011;8790;53.590;10.002;2023-07-29T15:32:35;2.25;;;2.05;;
17345;SDS011;8790;53.590;10.002;2023-07-29T15:35:07;2.50;;;1.98;;
17345;SDS011;8790;53.590;10.002;2023-07-29T15:37:40;2.58;;;1.98;;
17345;SDS011;8790;53.590;10.002;2023-07-29T15:40:11;2.42;;;2.22;;
17345;SDS011;8790;53.590;10.002;2023-07-29T15:42:43;2.30;;;2.10;;
17345;SDS011;8790;53.590;10.002;2023-07-29T15:45:14;3.25;;;2.53;;
17345;SDS011;8790;53.590;10.002;2023-07-29T15:47:46;3.13;;;2.85;;
17345;SDS011;8790;53.590;10.002;2023-07-29T15:50:18;2.50;;;2.30;;
17345;SDS011;8790;53.590;10.002;2023-07-29T15:52:50;6.60;;;6.10;;
17345;SDS011;8790;53.590;10.002;2023-07-29T15:55:22;2.95;;;2.60;;
17345;SDS011;8790;53.590;10.002;2023-07-29T15:57:53;3.38;;;2.20;;
17345;SDS011;8790;53.590;10.002;2023-07-29T16:00:25;3.85;;;2.80;;
17345;SDS011;8790;53.590;10.002;2023-07-29T16:02:58;2.85;;;2.65;;